Overseas Skopelos — V7SU9 — position and weather

sailwx.info

Track history (hours):
 
Tides and Currents Weather Stations Pressure Air Temp Water Temp Dewpoint Dewpoint Depression Visibility Wind Speed Wind Dir Waves Ship Positions

Overseas Skopelos

Last reported at 2017-Mar-28 05:33 UTC. Time now 2017-Mar-28 06:09 UTC.
Position S 32°45' W 071°31'.

Length 183 m; draft 11.4 m.

Type: Tanker. MMSI: 538003726.

Date/timePositionNaut miles runAvg speedWind from/ knotsBaromVisibWave heightAir tempDewpointWater temp
2017-Mar-28 05:33S 32°45' W 071°31'2 0.1
2017-Mar-26 22:30S 32°46' W 071°30'0 0.0
2017-Mar-26 21:32S 32°46' W 071°30'0 0.0
2017-Mar-26 20:33S 32°46' W 071°30'0 0.0
2017-Mar-26 19:33S 32°46' W 071°30'0 0.0
2017-Mar-26 18:25S 32°46' W 071°30'0 0.0
2017-Mar-26 17:31S 32°46' W 071°30'0 0.2
2017-Mar-26 16:33S 32°46' W 071°30'1 0.9
2017-Mar-26 15:30S 32°46' W 071°31'0 0.1
2017-Mar-26 14:33S 32°46' W 071°31'0 0.1
2017-Mar-26 13:33S 32°46' W 071°31'0 0.0
2017-Mar-26 12:33S 32°46' W 071°31'0 0.1
2017-Mar-26 11:33S 32°46' W 071°31'0 0.0
2017-Mar-26 10:33S 32°46' W 071°31'0 0.0
2017-Mar-26 09:15S 32°46' W 071°31'0 0.1
2017-Mar-26 08:24S 32°46' W 071°31'0 0.0
2017-Mar-26 07:33S 32°46' W 071°31'2 1.9
2017-Mar-26 06:33S 32°45' W 071°33'5 4.6
2017-Mar-26 05:32S 32°45' W 071°38'  
Track history (hours):
 
Tides and Currents Weather Stations Pressure Air Temp Water Temp Dewpoint Dewpoint Depression Visibility Wind Speed Wind Dir Waves Ship Positions

Overseas Skopelos

Last reported at 2017-Mar-28 05:33 UTC. Time now 2017-Mar-28 06:09 UTC.
Position S 32°45' W 071°31'.

Length 183 m; draft 11.4 m.

Type: Tanker. MMSI: 538003726.

Date/timePositionNaut miles runAvg speedWind from/ knotsBaromVisibWave heightAir tempDewpointWater temp
2017-Mar-28 05:33S 32°45' W 071°31'2 0.1
2017-Mar-26 22:30S 32°46' W 071°30'0 0.0
2017-Mar-26 21:32S 32°46' W 071°30'0 0.0
2017-Mar-26 20:33S 32°46' W 071°30'0 0.0
2017-Mar-26 19:33S 32°46' W 071°30'0 0.0
2017-Mar-26 18:25S 32°46' W 071°30'0 0.0
2017-Mar-26 17:31S 32°46' W 071°30'0 0.2
2017-Mar-26 16:33S 32°46' W 071°30'1 0.9
2017-Mar-26 15:30S 32°46' W 071°31'0 0.1
2017-Mar-26 14:33S 32°46' W 071°31'0 0.1
2017-Mar-26 13:33S 32°46' W 071°31'0 0.0
2017-Mar-26 12:33S 32°46' W 071°31'0 0.1
2017-Mar-26 11:33S 32°46' W 071°31'0 0.0
2017-Mar-26 10:33S 32°46' W 071°31'0 0.0
2017-Mar-26 09:15S 32°46' W 071°31'0 0.1
2017-Mar-26 08:24S 32°46' W 071°31'0 0.0
2017-Mar-26 07:33S 32°46' W 071°31'2 1.9
2017-Mar-26 06:33S 32°45' W 071°33'5 4.6
2017-Mar-26 05:32S 32°45' W 071°38'  

Dump ship's entire track history